Time;durP1;ratioP1;P1;durP2;ratioP2;P2;SDS_P1;SDS_P2;PMS_P1;PMS_P2;Temp;Humidity;BMP_temperature;BMP_pressure;BME280_temperature;BME280_humidity;BME280_pressure;Samples;Min_cycle;Max_cycle;Signal;HPM_P1;HPM_P2
2024/01/22 00:00:52;;;;;;;8.10;5.50;;;;;;;7.50;100.00;100839.91;5010926;28;20148;-66
2024/01/22 00:03:18;;;;;;;9.15;4.72;;;;;;;7.58;100.00;100817.47;5010872;28;20113;-66
2024/01/22 00:05:43;;;;;;;8.30;4.90;;;;;;;7.56;100.00;100835.22;5009396;28;20112;-66
2024/01/22 00:08:10;;;;;;;8.25;5.18;;;;;;;7.51;100.00;100785.19;5009743;28;20595;-65
2024/01/22 00:10:36;;;;;;;6.93;4.72;;;;;;;7.34;100.00;100746.34;5007412;28;20025;-66
2024/01/22 00:13:01;;;;;;;6.18;4.40;;;;;;;7.58;100.00;100799.78;5009642;28;20026;-66
2024/01/22 00:15:29;;;;;;;6.47;5.70;;;;;;;7.63;100.00;100744.00;5010558;28;20168;-66
2024/01/22 00:17:54;;;;;;;7.80;4.85;;;;;;;7.68;100.00;100755.19;5010876;28;20026;-65
2024/01/22 00:20:20;;;;;;;7.97;4.35;;;;;;;7.62;100.00;100764.31;5011178;28;20048;-65
2024/01/22 00:22:48;;;;;;;6.78;4.50;;;;;;;7.44;100.00;100760.84;5011050;28;20373;-66
2024/01/22 00:25:13;;;;;;;6.10;4.72;;;;;;;7.78;100.00;100785.53;5017872;28;20025;-66
2024/01/22 00:27:39;;;;;;;4.65;4.22;;;;;;;7.72;100.00;100799.09;4999874;28;20073;-65
2024/01/22 00:30:06;;;;;;;6.97;4.70;;;;;;;7.68;100.00;100744.63;5008266;28;20075;-66
2024/01/22 00:32:31;;;;;;;8.55;4.95;;;;;;;7.77;100.00;100753.88;5010741;28;20014;-66
2024/01/22 00:34:57;;;;;;;7.38;4.60;;;;;;;7.74;100.00;100731.06;5010337;28;20032;-66
2024/01/22 00:37:24;;;;;;;5.47;4.72;;;;;;;7.72;100.00;100730.25;5010045;28;20033;-66
2024/01/22 00:39:55;;;;;;;6.28;4.43;;;;;;;7.72;100.00;100682.63;5009917;28;20314;-65
2024/01/22 00:42:20;;;;;;;4.55;4.13;;;;;;;7.86;100.00;100732.19;5009257;28;20026;-66
2024/01/22 00:44:46;;;;;;;6.25;4.47;;;;;;;7.93;100.00;100713.22;5010316;28;20029;-66
2024/01/22 00:47:11;;;;;;;4.55;4.10;;;;;;;7.87;100.00;100700.31;5009817;28;20501;-66
2024/01/22 00:49:39;;;;;;;4.80;4.40;;;;;;;8.06;100.00;100686.94;5008696;28;20495;-65
2024/01/22 00:52:05;;;;;;;8.35;4.65;;;;;;;7.95;100.00;100707.84;5008822;28;20505;-66
2024/01/22 00:54:30;;;;;;;6.30;4.97;;;;;;;8.05;100.00;100695.81;5009975;28;20080;-66
2024/01/22 00:56:56;;;;;;;6.55;4.57;;;;;;;8.03;100.00;100700.34;5009698;28;20029;-65
2024/01/22 00:59:22;;;;;;;5.05;4.10;;;;;;;7.97;100.00;100698.88;5010871;28;20029;-66
2024/01/22 01:01:48;;;;;;;6.90;4.15;;;;;;;8.00;100.00;100705.81;5009863;28;20025;-66
2024/01/22 01:04:13;;;;;;;4.63;4.20;;;;;;;8.02;100.00;100689.81;5008550;28;20024;-65
2024/01/22 01:06:38;;;;;;;7.18;4.45;;;;;;;8.16;100.00;100703.16;5009483;28;20149;-66
2024/01/22 01:09:06;;;;;;;4.55;4.05;;;;;;;8.11;100.00;100707.84;5010243;28;20045;-66
2024/01/22 01:11:31;;;;;;;5.53;3.67;;;;;;;8.14;100.00;100699.75;5008374;28;20391;-65
2024/01/22 01:13:57;;;;;;;19.63;4.90;;;;;;;8.18;100.00;100683.59;5008680;28;20037;-66
2024/01/22 01:16:24;;;;;;;4.90;3.90;;;;;;;8.27;100.00;100703.44;5008685;28;20477;-66
2024/01/22 01:18:50;;;;;;;6.95;3.78;;;;;;;8.22;100.00;100684.28;5008278;28;20030;-66
2024/01/22 01:21:17;;;;;;;7.47;4.15;;;;;;;8.30;100.00;100697.97;5010051;28;20057;-65
2024/01/22 01:23:42;;;;;;;4.60;3.95;;;;;;;8.25;100.00;100694.72;5010467;28;20459;-66
2024/01/22 01:26:08;;;;;;;4.32;3.47;;;;;;;8.27;100.00;100674.28;5014005;28;20048;-66
2024/01/22 01:28:34;;;;;;;4.30;3.90;;;;;;;8.35;100.00;100689.72;5012631;28;20184;-66
2024/01/22 01:30:59;;;;;;;7.45;3.80;;;;;;;8.32;100.00;100671.34;5013383;28;20496;-66
2024/01/22 01:33:25;;;;;;;4.25;3.65;;;;;;;8.31;100.00;100661.72;5013842;28;20026;-66
2024/01/22 01:35:50;;;;;;;4.05;3.70;;;;;;;8.26;100.00;100654.00;5013316;28;20441;-66
2024/01/22 01:38:16;;;;;;;3.78;3.40;;;;;;;8.24;100.00;100625.94;5013695;28;20033;-66
2024/01/22 01:40:41;;;;;;;5.82;3.67;;;;;;;8.31;100.00;100640.53;5011796;28;20550;-66
2024/01/22 01:43:09;;;;;;;4.18;3.58;;;;;;;8.32;100.00;100639.56;5013409;28;20112;-66
2024/01/22 01:45:34;;;;;;;5.20;3.40;;;;;;;8.51;100.00;100629.66;5012724;28;20038;-66
2024/01/22 01:48:03;;;;;;;8.50;4.25;;;;;;;8.52;100.00;100659.66;5016579;28;20040;-66
2024/01/22 01:50:28;;;;;;;4.53;3.78;;;;;;;8.67;100.00;100640.22;4999901;28;20081;-65
2024/01/22 01:52:57;;;;;;;7.18;4.03;;;;;;;8.62;100.00;100621.09;5000179;28;20026;-66
2024/01/22 01:55:23;;;;;;;3.90;3.58;;;;;;;8.51;100.00;100607.59;5003858;28;20044;-66
2024/01/22 01:57:49;;;;;;;3.78;3.47;;;;;;;8.53;100.00;100645.47;5004101;28;20022;-65
2024/01/22 02:00:16;;;;;;;6.63;3.83;;;;;;;8.42;100.00;100616.94;5003745;28;20045;-66
2024/01/22 02:02:41;;;;;;;3.65;3.28;;;;;;;8.37;100.00;100595.13;5004467;28;20500;-66
2024/01/22 02:05:07;;;;;;;5.70;3.50;;;;;;;8.57;100.00;100600.16;5002859;28;20030;-65
2024/01/22 02:07:32;;;;;;;3.53;3.20;;;;;;;8.52;100.00;100617.25;5003146;28;20130;-65
2024/01/22 02:09:58;;;;;;;4.20;3.88;;;;;;;8.57;100.00;100612.53;5001055;28;20048;-66
2024/01/22 02:12:23;;;;;;;4.85;3.72;;;;;;;8.69;100.00;100598.56;5002130;28;20389;-65
2024/01/22 02:14:49;;;;;;;4.18;3.75;;;;;;;8.63;100.00;100583.03;5003091;28;20030;-65
2024/01/22 02:17:16;;;;;;;5.07;3.25;;;;;;;8.62;100.00;100592.78;5002861;28;20029;-66
2024/01/22 02:19:41;;;;;;;5.70;3.53;;;;;;;8.58;100.00;100575.31;5003533;28;20398;-66
2024/01/22 02:22:07;;;;;;;4.30;3.90;;;;;;;8.69;100.00;100587.13;5004532;28;20105;-66
2024/01/22 02:24:33;;;;;;;6.13;4.65;;;;;;;8.57;100.00;100563.03;5002530;28;20129;-66
2024/01/22 02:26:59;;;;;;;4.85;3.72;;;;;;;8.35;100.00;100491.88;5002582;28;20482;-66
2024/01/22 02:29:24;;;;;;;3.45;3.17;;;;;;;8.63;100.00;100548.56;5011889;28;20050;-66
2024/01/22 02:31:52;;;;;;;3.33;3.03;;;;;;;8.79;100.00;100554.63;5012665;28;20500;-66
2024/01/22 02:34:18;;;;;;;3.80;2.80;;;;;;;8.61;100.00;100548.63;5012606;28;20026;-66
2024/01/22 02:36:45;;;;;;;4.00;3.63;;;;;;;8.65;100.00;100541.38;5012070;28;20116;-66
2024/01/22 02:39:13;;;;;;;7.65;3.42;;;;;;;8.69;100.00;100537.59;5010972;28;20504;-66
2024/01/22 02:41:42;;;;;;;3.78;3.42;;;;;;;8.71;100.00;100511.00;5010167;28;20026;-66
2024/01/22 02:44:08;;;;;;;3.72;3.35;;;;;;;8.80;100.00;100532.50;5012020;28;20124;-65
2024/01/22 02:46:33;;;;;;;5.72;3.33;;;;;;;8.74;100.00;100490.44;5012043;28;20152;-65
2024/01/22 02:48:59;;;;;;;5.05;3.50;;;;;;;8.99;100.00;100480.97;5011606;28;20030;-65
2024/01/22 02:51:25;;;;;;;5.93;3.47;;;;;;;8.79;100.00;100495.44;5012008;28;20037;-65
2024/01/22 02:53:52;;;;;;;3.65;3.20;;;;;;;8.90;100.00;100486.84;5009545;28;20037;-66
2024/01/22 02:56:18;;;;;;;4.43;3.28;;;;;;;8.85;100.00;100479.16;5000388;28;20036;-66
2024/01/22 02:58:43;;;;;;;4.25;3.25;;;;;;;8.85;100.00;100477.38;5008466;28;20029;-65
2024/01/22 03:01:09;;;;;;;5.50;3.08;;;;;;;8.80;100.00;100470.66;5011765;28;20107;-65
2024/01/22 03:03:36;;;;;;;4.22;3.10;;;;;;;8.84;100.00;100464.19;5010001;28;20049;-65
2024/01/22 03:06:02;;;;;;;3.35;3.03;;;;;;;8.72;100.00;100449.06;5011042;28;20117;-65
2024/01/22 03:08:29;;;;;;;5.65;3.53;;;;;;;8.76;100.00;100454.06;5012452;28;20592;-65
2024/01/22 03:10:55;;;;;;;4.00;3.20;;;;;;;8.66;100.00;100438.84;5010172;28;20072;-65
2024/01/22 03:13:21;;;;;;;3.03;2.83;;;;;;;8.67;100.00;100448.47;5012203;28;20030;-65
2024/01/22 03:15:46;;;;;;;5.60;3.13;;;;;;;8.71;100.00;100424.34;5011840;28;20564;-64
2024/01/22 03:18:12;;;;;;;3.65;3.35;;;;;;;8.72;100.00;100433.16;5011538;28;20041;-65
2024/01/22 03:20:37;;;;;;;3.80;3.50;;;;;;;8.67;100.00;100430.78;5010185;28;20029;-65
2024/01/22 03:23:06;;;;;;;3.20;3.00;;;;;;;8.66;100.00;100430.88;5011668;28;20061;-64
2024/01/22 03:25:31;;;;;;;3.08;2.88;;;;;;;8.64;100.00;100437.13;5002124;28;20627;-64
2024/01/22 03:27:57;;;;;;;4.75;3.20;;;;;;;8.67;100.00;100420.16;5002930;28;20026;-64
2024/01/22 03:30:22;;;;;;;4.65;3.38;;;;;;;8.72;100.00;100435.81;5009616;28;20036;-65
2024/01/22 03:32:50;;;;;;;3.15;2.72;;;;;;;8.77;100.00;100410.72;5009940;28;20026;-64
2024/01/22 03:35:16;;;;;;;5.22;3.42;;;;;;;8.68;100.00;100395.38;5011452;28;20057;-64
2024/01/22 03:37:41;;;;;;;6.18;3.17;;;;;;;8.71;100.00;100415.56;5010729;28;20056;-64
2024/01/22 03:40:08;;;;;;;5.10;3.63;;;;;;;8.75;100.00;100414.41;5011267;28;20395;-64
2024/01/22 03:42:36;;;;;;;4.45;2.85;;;;;;;8.86;100.00;100411.94;5010400;28;20030;-65
2024/01/22 03:45:01;;;;;;;2.70;2.50;;;;;;;8.77;100.00;100408.06;5009025;28;20033;-65
2024/01/22 03:47:27;;;;;;;3.50;3.10;;;;;;;8.77;100.00;100399.25;4986127;28;20034;-64
2024/01/22 03:49:52;;;;;;;3.83;2.80;;;;;;;8.85;100.00;100395.19;4999640;28;20117;-65
2024/01/22 03:52:20;;;;;;;3.10;2.80;;;;;;;8.87;100.00;100376.50;4999905;28;20109;-65
2024/01/22 03:54:46;;;;;;;3.08;2.88;;;;;;;8.97;100.00;100413.88;5000242;28;20026;-65
2024/01/22 03:57:11;;;;;;;3.20;2.90;;;;;;;8.99;100.00;100385.47;4996548;28;20036;-65
2024/01/22 03:59:37;;;;;;;3.58;2.90;;;;;;;9.15;100.00;100393.28;5000271;28;20065;-65
2024/01/22 04:02:05;;;;;;;3.22;2.95;;;;;;;9.10;100.00;100390.94;4999423;28;20029;-65
2024/01/22 04:04:31;;;;;;;3.88;2.58;;;;;;;9.14;100.00;100367.72;5002701;28;20037;-64
2024/01/22 04:06:56;;;;;;;3.25;2.92;;;;;;;9.04;100.00;100384.22;5001583;28;20037;-65
2024/01/22 04:09:22;;;;;;;4.28;3.88;;;;;;;8.99;100.00;100383.66;5000643;28;20036;-64
2024/01/22 04:11:49;;;;;;;3.97;2.83;;;;;;;9.06;100.00;100360.28;4996544;28;20401;-64
2024/01/22 04:14:15;;;;;;;3.67;3.10;;;;;;;9.08;100.00;100380.41;4999718;28;20038;-64
2024/01/22 04:16:41;;;;;;;3.53;3.00;;;;;;;9.13;100.00;100377.47;5007366;28;20037;-65
2024/01/22 04:19:06;;;;;;;3.25;2.97;;;;;;;9.09;100.00;100371.53;5010667;28;20036;-64
2024/01/22 04:21:31;;;;;;;3.28;3.03;;;;;;;9.10;100.00;100378.53;5009418;28;20034;-65
2024/01/22 04:23:57;;;;;;;3.05;2.85;;;;;;;9.03;100.00;100347.19;5010547;28;20065;-65
2024/01/22 04:26:23;;;;;;;3.15;2.95;;;;;;;9.10;100.00;100356.47;5010478;28;20040;-64
2024/01/22 04:28:48;;;;;;;3.35;3.13;;;;;;;9.16;100.00;100365.81;5008971;28;20056;-65
2024/01/22 04:31:14;;;;;;;4.90;2.55;;;;;;;9.19;100.00;100363.81;5010309;28;20120;-65
2024/01/22 04:33:42;;;;;;;2.60;2.40;;;;;;;9.25;100.00;100365.22;5010411;28;20439;-65
2024/01/22 04:36:10;;;;;;;2.85;2.65;;;;;;;9.26;100.00;100361.59;5010469;28;20100;-64
2024/01/22 04:38:35;;;;;;;3.35;3.05;;;;;;;9.35;100.00;100387.53;5009648;28;20393;-65
2024/01/22 04:41:01;;;;;;;2.97;2.67;;;;;;;9.32;100.00;100354.13;5008612;28;20037;-65
2024/01/22 04:43:26;;;;;;;4.80;3.53;;;;;;;9.35;100.00;100358.34;5008904;28;20029;-65
2024/01/22 04:45:52;;;;;;;5.75;2.92;;;;;;;9.39;100.00;100372.28;5009172;28;20088;-65
2024/01/22 04:48:19;;;;;;;3.28;2.47;;;;;;;9.56;100.00;100348.13;5008725;28;20044;-65
2024/01/22 04:50:45;;;;;;;4.30;2.45;;;;;;;9.58;100.00;100345.38;5010426;28;20037;-65
2024/01/22 04:53:12;;;;;;;2.67;2.47;;;;;;;9.54;100.00;100374.78;5010551;28;20381;-65
2024/01/22 04:55:40;;;;;;;3.80;3.25;;;;;;;9.65;100.00;100349.31;5009619;28;20112;-65
2024/01/22 04:58:06;;;;;;;4.20;2.50;;;;;;;9.65;100.00;100350.16;5012018;28;20392;-65
2024/01/22 05:00:31;;;;;;;2.78;2.58;;;;;;;9.63;100.00;100325.50;5014376;28;20108;-65
2024/01/22 05:02:57;;;;;;;2.47;2.33;;;;;;;9.74;100.00;100338.06;5013572;28;20539;-65
2024/01/22 05:05:22;;;;;;;2.92;2.72;;;;;;;9.69;100.00;100342.84;5013217;28;20120;-65
2024/01/22 05:07:50;;;;;;;3.08;2.80;;;;;;;9.74;100.00;100372.59;5013335;28;20112;-65
2024/01/22 05:10:15;;;;;;;2.10;2.00;;;;;;;9.80;100.00;100372.19;5014272;28;20045;-65
2024/01/22 05:12:41;;;;;;;7.97;2.53;;;;;;;9.88;100.00;100376.97;5013233;28;20022;-65
2024/01/22 05:15:07;;;;;;;4.35;2.20;;;;;;;9.90;100.00;100359.97;5012988;28;20040;-65
2024/01/22 05:17:33;;;;;;;3.00;2.80;;;;;;;9.88;100.00;100350.41;5013698;28;20026;-65
2024/01/22 05:19:59;;;;;;;2.72;2.53;;;;;;;9.90;100.00;100340.53;5012724;28;20484;-65
2024/01/22 05:22:24;;;;;;;3.03;2.40;;;;;;;9.93;100.00;100353.59;5013624;28;20096;-65
2024/01/22 05:24:50;;;;;;;3.58;3.28;;;;;;;9.89;100.00;100341.50;5006014;28;20469;-65
2024/01/22 05:27:15;;;;;;;3.75;3.03;;;;;;;9.82;100.00;100362.28;5001472;28;20394;-65
2024/01/22 05:29:43;;;;;;;2.55;2.20;;;;;;;9.96;100.00;100353.38;5007784;28;20129;-65
2024/01/22 05:32:09;;;;;;;2.20;2.10;;;;;;;9.90;100.00;100361.78;5012640;28;20076;-65
2024/01/22 05:34:35;;;;;;;3.20;2.60;;;;;;;9.87;100.00;100357.53;5012746;28;20100;-65
2024/01/22 05:37:03;;;;;;;5.65;3.35;;;;;;;9.90;100.00;100352.00;5013393;28;20037;-65
2024/01/22 05:39:28;;;;;;;4.75;3.20;;;;;;;9.86;100.00;100347.88;5013922;28;20106;-65
2024/01/22 05:41:56;;;;;;;2.65;2.30;;;;;;;9.98;100.00;100341.72;5012957;28;20544;-65
2024/01/22 05:44:22;;;;;;;2.42;2.33;;;;;;;10.05;100.00;100351.91;5013436;28;20397;-65
2024/01/22 05:46:47;;;;;;;4.50;2.42;;;;;;;10.05;100.00;100354.56;5013109;28;20018;-65
2024/01/22 05:49:13;;;;;;;2.53;2.33;;;;;;;9.91;100.00;100364.34;5013629;28;20481;-65
2024/01/22 05:51:41;;;;;;;4.20;3.25;;;;;;;9.93;100.00;100346.47;5013742;28;20076;-65
2024/01/22 05:54:08;;;;;;;2.60;2.10;;;;;;;9.83;100.00;100365.81;5013387;28;20029;-65
2024/01/22 05:56:33;;;;;;;4.43;2.70;;;;;;;9.80;100.00;100350.94;5012112;28;20030;-65
2024/01/22 05:58:59;;;;;;;5.25;3.08;;;;;;;9.76;100.00;100363.59;5012340;28;20527;-64
2024/01/22 06:01:26;;;;;;;3.17;2.80;;;;;;;9.82;100.00;100351.66;5012391;28;20120;-65
2024/01/22 06:03:52;;;;;;;2.60;2.40;;;;;;;9.80;100.00;100369.53;5012174;28;20041;-65
2024/01/22 06:06:20;;;;;;;3.08;2.63;;;;;;;9.80;100.00;100371.34;5012016;28;20034;-65
2024/01/22 06:08:47;;;;;;;4.72;3.15;;;;;;;9.76;100.00;100382.16;5012516;28;20026;-65
2024/01/22 06:11:14;;;;;;;2.75;2.58;;;;;;;9.75;100.00;100368.97;5013032;28;20057;-65
2024/01/22 06:13:42;;;;;;;2.80;2.60;;;;;;;9.74;100.00;100392.03;5013269;28;20030;-64
2024/01/22 06:16:11;;;;;;;7.40;2.70;;;;;;;9.80;100.00;100397.91;5013435;28;20032;-65
2024/01/22 06:18:38;;;;;;;2.40;2.17;;;;;;;9.73;100.00;100386.81;5011623;28;20030;-65
2024/01/22 06:21:04;;;;;;;2.33;2.17;;;;;;;9.70;100.00;100363.13;5012283;28;20026;-65
2024/01/22 06:23:31;;;;;;;4.43;3.63;;;;;;;9.70;100.00;100348.03;5013040;28;20390;-64
2024/01/22 06:25:59;;;;;;;5.10;3.90;;;;;;;9.66;100.00;100356.31;5012115;28;20117;-64
2024/01/22 06:28:26;;;;;;;2.67;2.47;;;;;;;9.66;100.00;100343.03;5010184;28;20052;-64
2024/01/22 06:30:52;;;;;;;5.47;4.05;;;;;;;9.64;100.00;100361.72;5010250;28;20393;-64
2024/01/22 06:33:18;;;;;;;3.17;2.88;;;;;;;9.69;100.00;100367.59;5011224;28;20068;-64
2024/01/22 06:35:44;;;;;;;3.50;2.70;;;;;;;9.65;100.00;100381.19;5004469;28;20026;-64
2024/01/22 06:38:10;;;;;;;3.83;3.53;;;;;;;9.66;100.00;100370.44;4985164;28;20382;-64
2024/01/22 06:40:35;;;;;;;3.55;2.75;;;;;;;9.57;100.00;100348.97;5010689;28;20389;-64
2024/01/22 06:43:01;;;;;;;2.80;2.60;;;;;;;9.76;100.00;100349.44;5010654;28;20026;-64
2024/01/22 06:45:26;;;;;;;2.83;2.63;;;;;;;9.72;100.00;100362.06;5010992;28;20072;-64
2024/01/22 06:47:54;;;;;;;2.90;2.70;;;;;;;9.82;100.00;100380.03;5011897;28;20385;-64
2024/01/22 06:50:20;;;;;;;2.63;2.38;;;;;;;9.71;100.00;100389.59;5011782;28;20026;-64
2024/01/22 06:52:48;;;;;;;4.32;2.75;;;;;;;9.75;100.00;100396.38;5011808;28;20025;-64
2024/01/22 06:55:14;;;;;;;4.32;3.47;;;;;;;9.75;100.00;100390.22;5011484;28;20014;-64
2024/01/22 06:57:39;;;;;;;3.88;3.28;;;;;;;9.68;100.00;100402.22;5011254;28;20083;-64
2024/01/22 07:00:12;;;;;;;4.05;3.10;;;;;;;9.70;100.00;100398.47;5011895;28;20065;-64
2024/01/22 07:02:38;;;;;;;2.92;2.63;;;;;;;9.71;100.00;100418.78;5010917;28;20025;-64
2024/01/22 07:05:05;;;;;;;2.90;2.70;;;;;;;9.75;100.00;100412.31;5012079;28;20424;-64
2024/01/22 07:07:31;;;;;;;2.67;2.47;;;;;;;9.70;100.00;100398.47;5009685;28;20021;-64
2024/01/22 07:09:57;;;;;;;3.30;3.10;;;;;;;9.68;100.00;100407.53;5011586;28;20030;-64
2024/01/22 07:12:23;;;;;;;3.50;2.53;;;;;;;9.70;100.00;100390.53;5013286;28;20028;-64
2024/01/22 07:14:49;;;;;;;3.13;2.80;;;;;;;9.75;100.00;100406.16;4987134;28;20035;-64
2024/01/22 07:17:21;;;;;;;5.57;3.08;;;;;;;9.69;100.00;100385.31;5007934;28;20017;-64
2024/01/22 07:19:51;;;;;;;4.03;2.65;;;;;;;9.91;100.00;100400.66;5010777;28;20069;-65
2024/01/22 07:22:17;;;;;;;;;;;;;;;9.83;100.00;100393.22;5010613;28;20044;-65
2024/01/22 07:24:44;;;;;;;4.47;3.75;;;;;;;9.72;100.00;100378.00;5011364;28;19939;-64
2024/01/22 07:27:10;;;;;;;2.70;2.50;;;;;;;9.88;100.00;100399.09;5011669;28;20397;-64
2024/01/22 07:29:35;;;;;;;2.92;2.40;;;;;;;9.77;100.00;100390.97;5008428;28;20057;-64
2024/01/22 07:32:01;;;;;;;4.47;2.75;;;;;;;9.78;100.00;100401.47;5010402;28;20022;-64
2024/01/22 07:34:27;;;;;;;5.28;3.78;;;;;;;9.85;100.00;100393.94;4999650;28;20036;-63
2024/01/22 07:36:52;;;;;;;4.18;2.80;;;;;;;9.86;100.00;100398.31;5008714;28;20386;-63
2024/01/22 07:39:18;;;;;;;6.75;3.58;;;;;;;9.75;100.00;100393.72;5010347;28;20029;-63
2024/01/22 07:41:44;;;;;;;7.22;2.20;;;;;;;9.93;100.00;100401.41;5008077;28;20022;-63
2024/01/22 07:44:10;;;;;;;5.38;2.60;;;;;;;9.91;100.00;100408.63;5010084;28;20029;-63
2024/01/22 07:46:35;;;;;;;8.27;3.70;;;;;;;9.87;100.00;100383.25;4994769;28;20540;-63
2024/01/22 07:49:00;;;;;;;8.07;4.20;;;;;;;9.88;100.00;100411.50;4993015;28;20026;-63
2024/01/22 07:51:27;;;;;;;3.60;2.75;;;;;;;10.04;100.00;100416.63;4990895;28;20036;-62
2024/01/22 07:53:54;;;;;;;6.32;2.90;;;;;;;9.88;100.00;100415.03;5004743;28;20022;-63
2024/01/22 07:56:20;;;;;;;12.07;3.55;;;;;;;9.91;100.00;100405.97;5006195;28;20030;-63
2024/01/22 07:58:45;;;;;;;9.27;2.92;;;;;;;9.85;100.00;100393.09;5000338;28;20022;-63
2024/01/22 08:01:14;;;;;;;10.82;3.20;;;;;;;9.88;100.00;100380.50;4993345;28;20389;-62
2024/01/22 08:03:39;;;;;;;14.65;3.25;;;;;;;9.86;100.00;100384.19;4999844;28;20021;-63
2024/01/22 08:06:05;;;;;;;17.73;5.75;;;;;;;9.89;100.00;100389.31;5009917;28;20025;-63
2024/01/22 08:08:30;;;;;;;12.45;4.82;;;;;;;9.90;100.00;100391.84;4995164;28;20470;-63
2024/01/22 08:10:57;;;;;;;10.88;3.75;;;;;;;10.02;100.00;100385.69;5007792;28;20084;-63
2024/01/22 08:13:23;;;;;;;19.00;4.45;;;;;;;9.91;100.00;100382.94;5008501;28;20017;-62
2024/01/22 08:15:48;;;;;;;16.52;3.25;;;;;;;9.89;100.00;100402.59;5003660;28;20026;-63
2024/01/22 08:18:14;;;;;;;19.30;7.15;;;;;;;9.88;100.00;100403.53;4992722;28;20390;-62
2024/01/22 08:20:40;;;;;;;24.05;7.32;;;;;;;9.82;100.00;100404.78;5006568;28;20029;-63
2024/01/22 08:23:06;;;;;;;13.95;4.80;;;;;;;9.85;100.00;100411.69;5003436;28;20080;-62
2024/01/22 08:25:32;;;;;;;16.10;4.57;;;;;;;9.89;100.00;100407.91;5001638;28;20030;-62
2024/01/22 08:28:03;;;;;;;21.35;6.53;;;;;;;9.85;100.00;100420.50;4999497;28;20501;-62
2024/01/22 08:30:29;;;;;;;11.00;4.05;;;;;;;10.00;100.00;100413.34;5009249;28;20042;-62
2024/01/22 08:32:55;;;;;;;15.43;3.78;;;;;;;9.89;100.00;100413.22;5009436;28;20033;-62
2024/01/22 08:35:21;;;;;;;20.00;3.83;;;;;;;9.90;100.00;100428.19;5010812;28;20113;-62
2024/01/22 08:37:52;;;;;;;15.32;3.78;;;;;;;10.01;100.00;100431.81;5009360;28;20109;-63
2024/01/22 08:40:22;;;;;;;17.25;4.15;;;;;;;9.97;100.00;100435.66;5008090;28;20164;-62
2024/01/22 08:42:53;;;;;;;8.82;3.40;;;;;;;10.01;100.00;100449.56;5009433;28;20045;-63
2024/01/22 08:45:19;;;;;;;20.25;6.35;;;;;;;9.84;100.00;100433.91;5006701;28;20025;-64
2024/01/22 08:47:46;;;;;;;22.00;6.57;;;;;;;9.80;100.00;100453.66;5009504;28;20040;-63
2024/01/22 08:50:15;;;;;;;18.55;4.43;;;;;;;9.89;100.00;100472.50;5008495;28;20434;-63
2024/01/22 08:52:42;;;;;;;12.53;3.10;;;;;;;9.93;100.00;100473.13;5007884;28;20433;-62
2024/01/22 08:55:09;;;;;;;15.70;3.50;;;;;;;9.90;100.00;100449.44;5010084;28;20473;-62
2024/01/22 08:57:35;;;;;;;17.90;3.97;;;;;;;9.93;100.00;100466.00;5006450;28;20044;-62
2024/01/22 09:00:05;;;;;;;8.52;3.40;;;;;;;9.92;100.00;100444.88;5007128;28;20185;-62
2024/01/22 09:02:31;;;;;;;12.55;3.90;;;;;;;9.90;100.00;100460.91;5010016;28;20413;-62
2024/01/22 09:04:56;;;;;;;21.10;7.57;;;;;;;9.81;100.00;100469.50;5009839;28;20029;-62
2024/01/22 09:07:22;;;;;;;12.75;4.20;;;;;;;9.92;100.00;100448.38;5009530;28;20038;-62
2024/01/22 09:09:47;;;;;;;11.57;3.75;;;;;;;9.94;100.00;100449.13;5009262;28;20388;-62
2024/01/22 09:12:12;;;;;;;12.30;4.00;;;;;;;9.81;100.00;100453.56;5006019;28;20038;-64
2024/01/22 09:14:41;;;;;;;23.77;6.95;;;;;;;9.75;100.00;100457.47;5008487;28;20022;-62
2024/01/22 09:17:06;;;;;;;9.90;2.63;;;;;;;9.77;100.00;100430.81;5010375;28;20026;-63
2024/01/22 09:19:31;;;;;;;10.38;3.38;;;;;;;9.79;100.00;100444.81;5009150;28;20033;-62
2024/01/22 09:21:57;;;;;;;8.57;3.17;;;;;;;9.81;100.00;100448.25;5011456;28;20434;-62
2024/01/22 09:24:22;;;;;;;20.52;7.10;;;;;;;9.67;100.00;100435.88;5009234;28;20040;-62
2024/01/22 09:26:48;;;;;;;20.02;6.82;;;;;;;9.64;100.00;100441.38;5009011;28;20274;-62
2024/01/22 09:29:13;;;;;;;11.65;3.47;;;;;;;9.71;100.00;100448.00;5007212;28;20414;-62
2024/01/22 09:31:39;;;;;;;14.25;3.75;;;;;;;9.73;100.00;100438.13;5007662;28;20030;-62
2024/01/22 09:34:04;;;;;;;9.45;3.20;;;;;;;9.74;100.00;100457.56;5007181;28;20045;-62
2024/01/22 09:36:32;;;;;;;15.98;5.75;;;;;;;9.78;100.00;100459.91;5007042;28;20491;-62
2024/01/22 09:38:57;;;;;;;17.27;6.00;;;;;;;9.65;100.00;100443.09;5008649;28;20087;-62
2024/01/22 09:41:23;;;;;;;13.82;4.55;;;;;;;9.63;100.00;100450.31;5008116;28;20064;-62
2024/01/22 09:43:48;;;;;;;15.13;4.75;;;;;;;9.62;100.00;100431.81;5009022;28;20374;-62
2024/01/22 09:46:14;;;;;;;10.43;3.72;;;;;;;9.94;100.00;100450.91;5012696;28;20037;-62
2024/01/22 09:48:40;;;;;;;19.90;5.90;;;;;;;9.50;100.00;100436.13;5012542;28;20062;-63
2024/01/22 09:51:06;;;;;;;16.23;3.92;;;;;;;9.75;100.00;100465.44;5011337;28;20037;-62
2024/01/22 09:53:36;;;;;;;8.80;3.28;;;;;;;9.82;100.00;100473.84;5010453;28;20053;-62
2024/01/22 09:56:04;;;;;;;10.73;3.17;;;;;;;9.73;100.00;100487.72;5008968;28;20029;-62
2024/01/22 09:58:37;;;;;;;11.05;3.33;;;;;;;9.83;100.00;100499.47;5008424;28;20036;-62
2024/01/22 10:01:04;;;;;;;7.10;3.10;;;;;;;9.87;100.00;100479.69;5011120;28;20653;-62
2024/01/22 10:03:32;;;;;;;10.15;3.13;;;;;;;9.80;100.00;100485.53;5012556;28;20080;-63
2024/01/22 10:06:01;;;;;;;15.70;5.68;;;;;;;9.76;100.00;100496.38;5011780;28;20040;-62
2024/01/22 10:08:27;;;;;;;14.07;3.75;;;;;;;9.76;100.00;100501.69;5012041;28;20022;-62
2024/01/22 10:10:52;;;;;;;7.47;3.15;;;;;;;9.84;100.00;100503.81;5008621;28;20105;-62
2024/01/22 10:13:18;;;;;;;8.20;2.90;;;;;;;9.86;100.00;100499.25;5008742;28;20129;-62
2024/01/22 10:15:46;;;;;;;7.18;2.65;;;;;;;9.97;100.00;100509.16;5011752;28;20384;-62
2024/01/22 10:18:16;;;;;;;8.25;3.22;;;;;;;9.90;100.00;100510.53;5010640;28;20029;-62
2024/01/22 10:20:44;;;;;;;4.45;2.80;;;;;;;9.92;100.00;100504.16;5011208;28;20092;-62
2024/01/22 10:23:11;;;;;;;8.10;3.10;;;;;;;10.02;100.00;100568.16;5003261;28;20030;-62
2024/01/22 10:25:37;;;;;;;14.68;5.05;;;;;;;9.75;100.00;100589.41;5012959;28;20025;-63
2024/01/22 10:28:16;;;;;;;15.75;3.38;;;;;;;9.66;100.00;100601.47;5006286;28;20029;-64
2024/01/22 10:30:44;;;;;;;14.23;3.90;;;;;;;9.38;100.00;100610.28;5011112;28;20084;-62
2024/01/22 10:33:12;;;;;;;19.27;4.10;;;;;;;9.13;100.00;100600.34;5007015;28;20025;-62
2024/01/22 10:35:38;;;;;;;13.15;3.90;;;;;;;8.88;100.00;100577.09;5011262;28;20025;-62
2024/01/22 10:38:13;;;;;;;23.58;6.80;;;;;;;8.74;100.00;100603.59;5010809;28;20079;-62
2024/01/22 10:40:40;;;;;;;18.48;4.57;;;;;;;8.72;100.00;100619.59;5010945;28;20444;-63
2024/01/22 10:43:20;;;;;;;16.02;5.20;;;;;;;8.71;100.00;100617.03;5009407;28;20025;-62
2024/01/22 10:45:49;;;;;;;23.17;6.30;;;;;;;8.54;100.00;100600.31;5008707;28;20112;-62
2024/01/22 10:48:17;;;;;;;20.15;5.15;;;;;;;8.55;100.00;100603.81;5005528;28;20104;-62
2024/01/22 10:50:46;;;;;;;23.35;5.25;;;;;;;8.57;100.00;100605.44;5010581;28;20052;-62
2024/01/22 10:53:14;;;;;;;20.25;5.25;;;;;;;8.58;100.00;100611.59;5007470;28;20022;-62
2024/01/22 10:55:39;;;;;;;34.35;5.88;;;;;;;8.67;100.00;100605.75;5010590;28;20551;-63
2024/01/22 10:58:26;;;;;;;22.98;4.68;;;;;;;8.60;100.00;100607.06;5009232;28;20026;-62
2024/01/22 11:00:57;;;;;;;19.98;4.30;;;;;;;8.60;100.00;100599.97;5007132;28;20034;-62
2024/01/22 11:03:26;;;;;;;22.58;5.85;;;;;;;8.59;100.00;100600.91;5007415;28;20041;-62
2024/01/22 11:05:56;;;;;;;24.00;5.40;;;;;;;8.63;100.00;100606.88;5010660;28;20026;-62
2024/01/22 11:08:23;;;;;;;25.95;5.78;;;;;;;8.68;100.00;100617.19;5011056;28;20051;-62
2024/01/22 11:10:51;;;;;;;20.67;4.95;;;;;;;8.68;100.00;100614.53;5009313;28;20056;-62
2024/01/22 11:13:16;;;;;;;24.10;5.47;;;;;;;8.68;100.00;100617.19;5010376;28;20489;-62
2024/01/22 11:15:45;;;;;;;32.22;5.80;;;;;;;8.63;100.00;100610.38;4993324;28;20033;-63
2024/01/22 11:18:11;;;;;;;28.98;6.47;;;;;;;8.71;100.00;100636.47;5009585;28;20029;-64
2024/01/22 11:20:39;;;;;;;26.75;6.10;;;;;;;8.72;100.00;100635.50;5011182;28;20018;-63